Time;durP1;ratioP1;P1;durP2;ratioP2;P2;SDS_P1;SDS_P2;PMS_P1;PMS_P2;Temp;Humidity;BMP_temperature;BMP_pressure;BME280_temperature;BME280_humidity;BME280_pressure;Samples;Min_cycle;Max_cycle;Signal;HPM_P1;HPM_P2
2022/05/30 00:00:23;;;;;;;1.85;0.75;;;;;;;17.06;63.51;100999.25;20768713;28;20069;-81
2022/05/30 00:10:25;;;;;;;1.58;0.70;;;;;;;17.05;63.51;100993.97;20787382;28;20061;-81
2022/05/30 00:20:26;;;;;;;1.73;0.68;;;;;;;17.05;63.50;100997.53;20789330;28;20406;-81
2022/05/30 00:30:28;;;;;;;2.70;0.82;;;;;;;16.84;63.49;100951.75;20763128;28;20129;-81
2022/05/30 00:40:30;;;;;;;1.42;0.70;;;;;;;16.99;63.44;100973.81;20768712;28;20051;-81
2022/05/30 00:50:32;;;;;;;1.30;0.60;;;;;;;17.03;63.14;100966.34;20792447;28;20441;-82
2022/05/30 01:00:34;;;;;;;0.80;0.40;;;;;;;17.03;63.15;100966.34;20785713;28;20049;-84
2022/05/30 01:10:35;;;;;;;2.20;0.57;;;;;;;17.03;63.12;100966.34;20769671;28;20042;-84
2022/05/30 01:20:46;;;;;;;0.85;0.40;;;;;;;17.02;62.98;100953.88;20788709;28;20124;-81
2022/05/30 01:30:47;;;;;;;0.63;0.45;;;;;;;17.01;63.01;100965.63;20834031;28;20052;-81
2022/05/30 01:40:50;;;;;;;0.68;0.60;;;;;;;16.99;62.93;100970.28;20939830;28;20045;-82
2022/05/30 01:50:57;;;;;;;1.77;0.52;;;;;;;17.00;62.81;100958.53;20816436;28;20045;-82
2022/05/30 02:01:12;;;;;;;1.85;0.50;;;;;;;16.98;62.69;100952.44;20788135;28;20045;-82
2022/05/30 02:11:16;;;;;;;1.48;0.50;;;;;;;16.98;62.73;100945.22;20822570;28;20073;-82
2022/05/30 02:21:18;;;;;;;2.28;1.02;;;;;;;16.95;62.66;100935.56;20930460;28;20452;-82
2022/05/30 02:31:20;;;;;;;2.25;0.68;;;;;;;16.95;62.60;100938.25;20960334;28;20432;-81
2022/05/30 02:41:21;;;;;;;1.50;0.50;;;;;;;16.90;62.25;100929.72;20940673;28;20040;-82
2022/05/30 02:51:29;;;;;;;0.57;0.40;;;;;;;16.94;62.37;100935.66;20956793;28;20501;-82
2022/05/30 03:01:31;;;;;;;0.98;0.50;;;;;;;16.95;62.06;100940.06;20953990;28;20055;-82
2022/05/30 03:11:33;;;;;;;0.38;0.30;;;;;;;16.93;62.22;100940.22;20959307;28;20048;-82
2022/05/30 03:21:35;;;;;;;0.93;0.60;;;;;;;16.93;61.88;100942.03;20970492;28;20048;-82
2022/05/30 03:31:38;;;;;;;0.60;0.50;;;;;;;16.93;61.71;100945.59;20912099;28;20054;-82
2022/05/30 03:41:40;;;;;;;0.63;0.40;;;;;;;16.77;61.82;100910.19;20913735;28;20496;-82
2022/05/30 03:51:46;;;;;;;0.63;0.40;;;;;;;16.85;61.66;100942.69;20937722;28;20053;-82
2022/05/30 04:01:48;;;;;;;1.05;0.40;;;;;;;16.76;61.43;100927.31;20828614;28;20047;-82
2022/05/30 04:11:49;;;;;;;0.95;0.40;;;;;;;16.90;61.43;100945.84;20818553;28;20517;-82
2022/05/30 04:21:56;;;;;;;0.82;0.35;;;;;;;16.84;61.29;100930.22;20786032;28;20130;-81
2022/05/30 04:32:06;;;;;;;1.00;0.32;;;;;;;16.89;61.31;100943.28;20772972;28;20161;-82
2022/05/30 04:42:08;;;;;;;0.52;0.32;;;;;;;16.89;61.33;100954.91;20741839;28;20129;-82
2022/05/30 04:52:28;;;;;;;0.85;0.40;;;;;;;16.88;61.15;100952.31;20740442;28;20041;-82
2022/05/30 05:02:37;;;;;;;0.63;0.43;;;;;;;16.89;61.20;100954.03;20804998;28;20049;-82
2022/05/30 05:12:39;;;;;;;0.43;0.40;;;;;;;16.84;60.92;100964.31;20749576;28;20042;-82
2022/05/30 05:22:59;;;;;;;1.65;0.43;;;;;;;16.88;61.15;100968.44;20768806;28;20038;-82
2022/05/30 05:33:19;;;;;;;0.30;0.30;;;;;;;16.85;61.14;100966.88;20790570;28;20041;-82
2022/05/30 05:43:22;;;;;;;0.43;0.40;;;;;;;16.80;61.04;100958.34;20804703;28;20057;-82
2022/05/30 05:53:25;;;;;;;0.68;0.52;;;;;;;16.88;61.16;100969.31;20879802;28;20052;-82
2022/05/30 06:03:26;;;;;;;0.85;0.35;;;;;;;16.89;60.97;100976.41;20835487;28;20124;-85
2022/05/30 06:13:51;;;;;;;3.72;0.98;;;;;;;16.82;62.32;100948.31;20821742;28;20061;-84
2022/05/30 06:23:54;;;;;;;2.20;0.80;;;;;;;16.85;62.87;100942.69;20907920;28;20382;-85
2022/05/30 06:34:14;;;;;;;0.90;0.40;;;;;;;17.16;61.83;100987.69;20860058;28;20049;-85
2022/05/30 06:44:18;;;;;;;0.95;0.60;;;;;;;17.19;61.42;100992.81;20862280;28;20047;-85
2022/05/30 06:54:22;;;;;;;2.03;0.60;;;;;;;17.23;60.87;100992.44;20894349;28;20051;-86
2022/05/30 07:04:24;;;;;;;3.00;0.60;;;;;;;17.28;60.55;100993.88;20839061;28;20523;-85
2022/05/30 07:14:48;;;;;;;2.65;0.47;;;;;;;17.34;61.94;100996.06;20793503;28;20569;-80
2022/05/30 07:24:50;;;;;;;0.45;0.25;;;;;;;17.44;62.66;101006.88;20825949;28;20067;-79
2022/05/30 07:35:11;;;;;;;0.30;0.30;;;;;;;17.48;61.49;101006.47;20807872;28;20052;-79
2022/05/30 07:45:31;;;;;;;3.30;0.60;;;;;;;17.47;61.12;101012.84;20797869;28;20032;-77
2022/05/30 07:55:43;;;;;;;0.82;0.40;;;;;;;17.46;60.86;101005.75;20797983;28;20052;-77
2022/05/30 08:05:47;;;;;;;1.50;0.88;;;;;;;17.46;61.04;100989.63;20802843;28;20724;-81
2022/05/30 08:16:07;;;;;;;1.02;0.45;;;;;;;17.57;61.21;100986.00;20879366;28;20159;-78
2022/05/30 08:26:14;;;;;;;0.87;0.60;;;;;;;17.58;61.48;101001.19;20809652;28;20081;-77
2022/05/30 08:36:36;;;;;;;2.63;0.80;;;;;;;17.35;61.39;100976.22;20834319;28;20413;-78
2022/05/30 08:46:47;;;;;;;3.50;0.50;;;;;;;17.47;61.79;101004.78;20855198;28;20057;-77
2022/05/30 08:56:52;;;;;;;1.65;0.77;;;;;;;17.45;61.61;101017.50;20852811;28;20044;-78
2022/05/30 09:07:22;;;;;;;1.20;0.40;;;;;;;17.41;61.30;101024.16;20772511;28;20042;-77
2022/05/30 09:17:40;;;;;;;6.45;0.50;;;;;;;17.41;61.34;101026.84;20791026;28;20061;-77
2022/05/30 09:27:42;;;;;;;2.25;0.32;;;;;;;17.47;61.69;101039.78;20781628;28;20046;-77
2022/05/30 09:38:06;;;;;;;1.85;0.40;;;;;;;17.48;61.69;101038.78;20819555;28;20060;-77
2022/05/30 09:48:24;;;;;;;1.95;0.50;;;;;;;17.49;61.90;101043.19;20830148;28;20063;-77
2022/05/30 09:58:43;;;;;;;5.38;0.60;;;;;;;17.51;61.87;101041.22;20858787;28;20404;-76
2022/05/30 10:09:23;;;;;;;0.45;0.20;;;;;;;17.38;61.78;101008.25;20830522;28;20037;-81
2022/05/30 10:19:30;;;;;;;1.83;0.30;;;;;;;17.45;61.73;101005.88;20856068;28;20049;-81
2022/05/30 10:29:54;;;;;;;1.00;0.40;;;;;;;17.65;61.65;101047.25;20864703;28;20044;-81
2022/05/30 10:40:45;;;;;;;0.60;0.40;;;;;;;17.66;61.57;101038.19;20852718;28;20054;-81
2022/05/30 10:51:06;;;;;;;0.45;0.20;;;;;;;17.69;61.88;101040.66;20858826;28;20057;-80
2022/05/30 11:01:13;;;;;;;0.68;0.30;;;;;;;17.73;61.68;101038.53;20787754;28;20195;-80
2022/05/30 11:11:32;;;;;;;1.17;0.35;;;;;;;17.68;61.76;101030.88;20819581;28;20042;-80
2022/05/30 11:22:01;;;;;;;0.40;0.20;;;;;;;17.78;61.54;101058.69;20857693;28;20049;-80
2022/05/30 11:32:43;;;;;;;0.30;0.20;;;;;;;17.57;61.72;101012.06;20860286;28;20091;-80
2022/05/30 11:43:04;;;;;;;0.32;0.30;;;;;;;17.78;61.78;101058.69;20747806;28;20049;-80
2022/05/30 11:53:27;;;;;;;0.93;0.30;;;;;;;17.77;61.33;101057.00;20778938;28;20049;-79
2022/05/30 12:03:34;;;;;;;0.20;0.20;;;;;;;17.76;61.55;101082.22;20783037;28;20056;-79
2022/05/30 12:13:48;;;;;;;0.38;0.25;;;;;;;17.67;61.74;101091.06;20843090;28;20562;-79
2022/05/30 12:24:12;;;;;;;1.00;0.20;;;;;;;17.70;61.61;101093.50;20843221;28;20107;-79
2022/05/30 12:34:14;;;;;;;0.45;0.20;;;;;;;17.64;61.83;101110.16;20857483;28;20463;-79
2022/05/30 12:44:23;;;;;;;3.40;0.30;;;;;;;17.65;62.13;101107.34;20841491;28;20071;-79
2022/05/30 12:54:29;;;;;;;0.95;0.28;;;;;;;17.64;62.17;101118.22;20818741;28;20108;-78
2022/05/30 13:04:35;;;;;;;0.90;0.40;;;;;;;17.64;62.39;101104.78;20846985;28;20137;-79
2022/05/30 13:14:37;;;;;;;1.95;0.30;;;;;;;17.65;62.39;101118.13;20812071;28;20408;-79
2022/05/30 13:24:39;;;;;;;2.65;0.35;;;;;;;17.44;62.68;101077.72;20816080;28;20053;-79
2022/05/30 13:34:44;;;;;;;1.48;0.20;;;;;;;17.60;62.46;101103.31;20822162;28;20786;-78
2022/05/30 13:44:46;;;;;;;0.47;0.20;;;;;;;17.63;62.57;101122.78;20829541;28;20057;-78
2022/05/30 13:54:54;;;;;;;0.95;0.35;;;;;;;17.66;62.47;101109.06;20775294;28;20041;-80
2022/05/30 14:05:02;;;;;;;0.55;0.20;;;;;;;17.36;62.54;101051.44;20852251;28;20047;-79
2022/05/30 14:15:12;;;;;;;0.95;0.30;;;;;;;17.71;62.47;101106.00;20853584;28;20068;-80
2022/05/30 14:25:31;;;;;;;0.82;0.20;;;;;;;17.63;62.47;101093.16;20830281;28;20068;-79
2022/05/30 14:35:33;;;;;;;0.85;0.40;;;;;;;17.69;62.50;101110.66;20762586;28;20132;-79
2022/05/30 14:45:44;;;;;;;0.30;0.22;;;;;;;17.48;62.52;101070.25;20827134;28;20139;-81
2022/05/30 14:55:49;;;;;;;0.65;0.50;;;;;;;17.72;62.41;101105.00;20845363;28;20122;-82
2022/05/30 15:05:51;;;;;;;1.70;0.40;;;;;;;17.36;62.22;101045.22;20854185;28;20048;-81
2022/05/30 15:15:52;;;;;;;1.17;0.43;;;;;;;17.78;61.98;101112.56;20852051;28;20095;-81
2022/05/30 15:25:54;;;;;;;1.33;0.40;;;;;;;17.80;62.43;101118.66;20828805;28;20116;-78
2022/05/30 15:35:57;;;;;;;1.00;0.30;;;;;;;17.78;62.25;101126.03;20842739;28;20048;-78
2022/05/30 15:45:58;;;;;;;1.38;0.40;;;;;;;17.62;62.20;101104.03;20786835;28;20414;-77
2022/05/30 16:06:21;;;;;;;0.30;0.30;;;;;;;17.70;62.34;101123.13;20816701;28;20115;-77
2022/05/30 16:16:23;;;;;;;0.90;0.35;;;;;;;17.67;62.58;101120.66;20836640;28;20056;-77
2022/05/30 16:26:35;;;;;;;0.60;0.35;;;;;;;17.51;62.51;101092.34;20766363;28;20055;-79
2022/05/30 16:36:39;;;;;;;1.42;0.40;;;;;;;17.51;62.64;101100.44;20781940;28;20049;-80
2022/05/30 16:46:41;;;;;;;1.33;0.20;;;;;;;17.74;62.58;101111.09;20852264;28;20049;-80
2022/05/30 16:56:43;;;;;;;2.10;0.50;;;;;;;17.83;62.68;101120.22;20831936;28;20076;-80
2022/05/30 17:06:45;;;;;;;1.65;0.93;;;;;;;17.84;63.05;101108.47;20844561;28;20047;-84
2022/05/30 17:16:47;;;;;;;6.05;1.48;;;;;;;17.72;63.99;101080.78;20829422;28;20406;-80
2022/05/30 17:37:15;;;;;;;4.97;1.58;;;;;;;18.06;65.73;101134.44;20838566;28;20465;-79
2022/05/30 17:47:25;;;;;;;4.82;1.58;;;;;;;18.00;65.79;101132.25;20842557;28;20045;-79
2022/05/30 17:57:27;;;;;;;7.68;0.95;;;;;;;18.03;65.36;101123.94;20812118;28;20514;-82
2022/05/30 18:07:31;;;;;;;1.67;0.60;;;;;;;18.08;65.13;101140.56;20767408;28;20194;-79
2022/05/30 18:17:58;;;;;;;2.33;0.70;;;;;;;18.06;65.00;101142.53;20835755;28;20147;-79
2022/05/30 18:28:02;;;;;;;3.65;1.25;;;;;;;17.86;64.68;101103.81;20840326;28;20063;-78
2022/05/30 18:38:25;;;;;;;2.28;0.90;;;;;;;17.98;64.25;101145.88;20846365;28;20083;-77
2022/05/30 18:48:34;;;;;;;2.10;0.80;;;;;;;17.68;64.10;101117.03;20832100;28;20049;-78
2022/05/30 18:58:53;;;;;;;2.65;0.60;;;;;;;17.67;64.05;101131.44;20833646;28;20044;-78
2022/05/30 19:08:55;;;;;;;1.95;0.80;;;;;;;17.78;64.23;101161.03;20848336;28;20064;-78
2022/05/30 19:19:04;;;;;;;2.08;0.65;;;;;;;17.74;64.11;101164.97;20811028;28;20132;-79
2022/05/30 19:29:06;;;;;;;2.92;0.60;;;;;;;17.71;64.26;101170.63;20797885;28;20049;-78
2022/05/30 19:39:08;;;;;;;1.02;0.45;;;;;;;17.66;64.68;101184.44;20851615;28;20076;-80
2022/05/30 19:49:12;;;;;;;2.03;1.30;;;;;;;17.61;64.81;101180.41;20865798;28;20091;-79
2022/05/30 19:59:14;;;;;;;2.10;0.68;;;;;;;17.52;64.91;101188.28;20833777;28;20073;-79
2022/05/30 20:09:16;;;;;;;3.30;1.00;;;;;;;17.50;64.89;101201.00;20817556;28;20060;-79
2022/05/30 20:19:18;;;;;;;1.35;0.43;;;;;;;17.31;64.80;101177.44;20890848;28;20212;-79
2022/05/30 20:29:19;;;;;;;1.58;0.43;;;;;;;17.44;64.96;101203.34;20804396;28;20453;-79
2022/05/30 20:39:21;;;;;;;2.05;0.70;;;;;;;17.41;64.62;101215.22;20777657;28;20389;-79
2022/05/30 20:49:24;;;;;;;0.73;0.45;;;;;;;17.30;64.87;101199.13;20784365;28;20095;-79
2022/05/30 20:59:25;;;;;;;2.05;0.68;;;;;;;17.28;64.87;101206.47;20791577;28;20061;-79
2022/05/30 21:09:26;;;;;;;1.23;0.60;;;;;;;17.25;64.80;101197.66;20736311;28;20040;-79
2022/05/30 21:19:34;;;;;;;1.05;0.50;;;;;;;17.24;64.78;101212.09;20801008;28;20044;-79
2022/05/30 21:29:35;;;;;;;1.58;0.50;;;;;;;17.32;64.59;101216.81;20782591;28;20076;-79
2022/05/30 21:39:37;;;;;;;0.93;0.50;;;;;;;17.30;64.55;101209.88;20780349;28;20049;-79
2022/05/30 21:49:39;;;;;;;1.15;0.45;;;;;;;17.29;64.50;101221.63;20714278;28;20104;-80
2022/05/30 21:59:40;;;;;;;0.55;0.43;;;;;;;17.21;64.36;101200.72;20796089;28;20170;-79
2022/05/30 22:09:42;;;;;;;0.40;0.40;;;;;;;17.25;64.26;101224.56;20788238;28;20041;-80
2022/05/30 22:19:44;;;;;;;0.65;0.40;;;;;;;17.23;64.03;101215.75;20805651;28;20080;-79
2022/05/30 22:29:45;;;;;;;0.50;0.47;;;;;;;17.23;64.01;101210.38;20798189;28;20129;-79
2022/05/30 22:39:46;;;;;;;0.52;0.40;;;;;;;16.96;64.06;101165.84;20766448;28;20050;-79
2022/05/30 22:49:48;;;;;;;0.60;0.43;;;;;;;17.21;63.94;101209.63;20795412;28;20076;-79
2022/05/30 22:59:49;;;;;;;1.05;0.50;;;;;;;17.20;63.74;101199.00;20795744;28;20049;-79
2022/05/30 23:09:51;;;;;;;1.08;0.60;;;;;;;17.19;63.47;101206.19;20787283;28;20136;-79
2022/05/30 23:19:56;;;;;;;0.80;0.43;;;;;;;17.18;63.35;101209.88;20791034;28;20045;-79
2022/05/30 23:29:58;;;;;;;0.43;0.30;;;;;;;17.17;63.45;101197.41;20791930;28;20077;-79
2022/05/30 23:39:59;;;;;;;0.75;0.50;;;;;;;17.09;63.11;101189.09;20726884;28;20095;-79
2022/05/30 23:50:01;;;;;;;0.50;0.47;;;;;;;17.15;63.06;101198.53;20756079;28;20132;-79
